Time;durP1;ratioP1;P1;durP2;ratioP2;P2;SDS_P1;SDS_P2;PMS_P1;PMS_P2;Temp;Humidity;BMP_temperature;BMP_pressure;BME280_temperature;BME280_humidity;BME280_pressure;Samples;Min_cycle;Max_cycle;Signal;HPM_P1;HPM_P2
2022/04/15 00:01:07;;;;;;;44.72;14.05;;;;;;;;;;4995662;28;20296;-72
2022/04/15 00:03:33;;;;;;;48.03;14.93;;;;;;;;;;4984432;28;20315;-72
2022/04/15 00:05:58;;;;;;;44.92;15.70;;;;;;;;;;4992643;28;20284;-72
2022/04/15 00:08:23;;;;;;;45.17;15.80;;;;;;;;;;4985114;28;20372;-72
2022/04/15 00:10:49;;;;;;;31.10;12.27;;;;;;;;;;4979866;28;20294;-70
2022/04/15 00:13:19;;;;;;;42.38;13.75;;;;;;;;;;4983683;28;20093;-72
2022/04/15 00:15:44;;;;;;;44.65;14.80;;;;;;;;;;4981946;28;20433;-72
2022/04/15 00:18:10;;;;;;;53.50;16.60;;;;;;;;;;4994138;28;20096;-72
2022/04/15 00:20:35;;;;;;;45.60;15.88;;;;;;;;;;4980768;28;20308;-75
2022/04/15 00:23:00;;;;;;;44.75;15.23;;;;;;;;;;4977683;28;20377;-72
2022/04/15 00:25:26;;;;;;;41.83;15.20;;;;;;;;;;4983996;28;20041;-72
2022/04/15 00:27:51;;;;;;;52.78;16.23;;;;;;;;;;4981201;28;20270;-72
2022/04/15 00:30:17;;;;;;;40.35;16.15;;;;;;;;;;4981427;28;20050;-71
2022/04/15 00:32:42;;;;;;;50.78;16.60;;;;;;;;;;4988946;28;20057;-72
2022/04/15 00:35:07;;;;;;;48.28;16.42;;;;;;;;;;4986074;28;20653;-72
2022/04/15 00:37:33;;;;;;;41.22;15.15;;;;;;;;;;4986381;28;20397;-72
2022/04/15 00:40:00;;;;;;;33.42;13.60;;;;;;;;;;4999437;28;20448;-72
2022/04/15 00:42:26;;;;;;;50.10;16.13;;;;;;;;;;4988568;28;20157;-72
2022/04/15 00:44:54;;;;;;;47.77;16.87;;;;;;;;;;4992226;28;20504;-72
2022/04/15 00:47:38;;;;;;;46.25;17.20;;;;;;;;;;4984877;28;20286;-72
2022/04/15 00:50:04;;;;;;;52.85;17.15;;;;;;;;;;4992508;28;20029;-72
2022/04/15 00:52:37;;;;;;;51.75;15.73;;;;;;;;;;4983478;28;20035;-72
2022/04/15 00:55:03;;;;;;;40.80;15.02;;;;;;;;;;4978615;28;20124;-72
2022/04/15 00:57:29;;;;;;;35.38;13.45;;;;;;;;;;4986353;28;20524;-71
2022/04/15 00:59:57;;;;;;;35.90;12.98;;;;;;;;;;4988763;28;20609;-72
2022/04/15 01:02:23;;;;;;;38.78;14.68;;;;;;;;;;4996795;28;20057;-72
2022/04/15 01:04:51;;;;;;;41.10;13.02;;;;;;;;;;5002652;28;20030;-72
2022/04/15 01:07:19;;;;;;;37.13;13.27;;;;;;;;;;4987962;28;20088;-71
2022/04/15 01:09:44;;;;;;;38.03;13.30;;;;;;;;;;4986402;28;20746;-72
2022/04/15 01:12:10;;;;;;;49.67;14.95;;;;;;;;;;4995495;28;20105;-72
2022/04/15 01:14:35;;;;;;;51.97;16.45;;;;;;;;;;4986628;28;20307;-71
2022/04/15 01:17:01;;;;;;;42.15;13.70;;;;;;;;;;4996256;28;20032;-72
2022/04/15 01:19:26;;;;;;;38.65;14.70;;;;;;;;;;4989765;28;20130;-72
2022/04/15 01:21:54;;;;;;;34.27;12.97;;;;;;;;;;4996747;28;20684;-72
2022/04/15 01:24:19;;;;;;;32.92;11.70;;;;;;;;;;4991662;28;20260;-72
2022/04/15 01:26:45;;;;;;;36.22;14.80;;;;;;;;;;4995177;28;20084;-71
2022/04/15 01:29:10;;;;;;;40.47;14.57;;;;;;;;;;4982921;28;20030;-71
2022/04/15 01:31:35;;;;;;;49.97;14.82;;;;;;;;;;4985419;28;20030;-72
2022/04/15 01:34:01;;;;;;;43.27;15.60;;;;;;;;;;4985439;28;20473;-71
2022/04/15 01:36:26;;;;;;;53.15;18.73;;;;;;;;;;4988900;28;20268;-72
2022/04/15 01:38:53;;;;;;;61.17;19.80;;;;;;;;;;4987684;28;20026;-71
2022/04/15 01:41:18;;;;;;;55.53;19.13;;;;;;;;;;4985926;28;20038;-71
2022/04/15 01:43:43;;;;;;;46.05;15.73;;;;;;;;;;4991132;28;20033;-72
2022/04/15 01:46:08;;;;;;;53.70;17.38;;;;;;;;;;4986408;28;20298;-72
2022/04/15 01:48:33;;;;;;;57.70;18.83;;;;;;;;;;4988763;28;20654;-72
2022/04/15 01:50:58;;;;;;;48.72;16.38;;;;;;;;;;4989279;28;20264;-72
2022/04/15 01:53:23;;;;;;;43.15;15.77;;;;;;;;;;4996742;28;20278;-72
2022/04/15 01:55:49;;;;;;;51.67;16.45;;;;;;;;;;4983973;28;20542;-71
2022/04/15 01:58:14;;;;;;;43.70;14.45;;;;;;;;;;4984828;28;20034;-71
2022/04/15 02:00:39;;;;;;;36.93;14.00;;;;;;;;;;4982409;28;20030;-71
2022/04/15 02:03:04;;;;;;;36.27;14.43;;;;;;;;;;4991791;28;20746;-72
2022/04/15 02:05:30;;;;;;;43.33;16.52;;;;;;;;;;4989316;28;20280;-72
2022/04/15 02:07:55;;;;;;;40.72;15.32;;;;;;;;;;4985557;28;20041;-71
2022/04/15 02:10:20;;;;;;;37.97;14.32;;;;;;;;;;4975516;28;20116;-71
2022/04/15 02:12:45;;;;;;;36.55;13.30;;;;;;;;;;4989169;28;20259;-72
2022/04/15 02:15:10;;;;;;;40.13;15.10;;;;;;;;;;4994136;28;21005;-72
2022/04/15 02:17:36;;;;;;;33.72;13.82;;;;;;;;;;4984922;28;20271;-71
2022/04/15 02:20:02;;;;;;;35.42;13.75;;;;;;;;;;4979657;28;20097;-72
2022/04/15 02:22:27;;;;;;;40.70;16.73;;;;;;;;;;4998492;28;20342;-71
2022/04/15 02:24:52;;;;;;;40.42;14.90;;;;;;;;;;4981768;28;20065;-72
2022/04/15 02:27:17;;;;;;;40.67;16.13;;;;;;;;;;4980173;28;20034;-72
2022/04/15 02:29:42;;;;;;;37.92;13.60;;;;;;;;;;4994020;28;20056;-71
2022/04/15 02:32:08;;;;;;;36.78;13.88;;;;;;;;;;4979930;28;20018;-71
2022/04/15 02:34:33;;;;;;;46.42;14.82;;;;;;;;;;4984666;28;20429;-72
2022/04/15 02:36:58;;;;;;;43.73;15.40;;;;;;;;;;4981072;28;20022;-72
2022/04/15 02:39:23;;;;;;;39.80;15.18;;;;;;;;;;4987696;28;20262;-71
2022/04/15 02:41:51;;;;;;;59.20;15.53;;;;;;;;;;4984050;28;20308;-72
2022/04/15 02:44:17;;;;;;;44.83;16.52;;;;;;;;;;4993571;28;20778;-72
2022/04/15 02:46:42;;;;;;;43.00;15.23;;;;;;;;;;4995509;28;20025;-72
2022/04/15 02:49:07;;;;;;;50.63;16.57;;;;;;;;;;4986416;28;20068;-72
2022/04/15 02:51:33;;;;;;;45.25;15.82;;;;;;;;;;4986756;28;20275;-72
2022/04/15 02:53:58;;;;;;;42.88;16.25;;;;;;;;;;4977992;28;20028;-72
2022/04/15 02:56:24;;;;;;;39.80;14.20;;;;;;;;;;4989768;28;20041;-72
2022/04/15 02:58:49;;;;;;;50.50;13.48;;;;;;;;;;4978959;28;20685;-72
2022/04/15 03:01:14;;;;;;;41.58;14.07;;;;;;;;;;4984354;28;20110;-72
2022/04/15 03:03:39;;;;;;;36.58;14.25;;;;;;;;;;4992444;28;20264;-72
2022/04/15 03:06:04;;;;;;;39.70;13.33;;;;;;;;;;4985887;28;20350;-72
2022/04/15 03:08:30;;;;;;;36.70;12.80;;;;;;;;;;4980676;28;20747;-72
2022/04/15 03:10:55;;;;;;;31.85;12.50;;;;;;;;;;4983725;28;20270;-71
2022/04/15 03:13:20;;;;;;;35.67;12.98;;;;;;;;;;4983443;28;20026;-71
2022/04/15 03:15:46;;;;;;;48.65;15.43;;;;;;;;;;4978218;28;20026;-71
2022/04/15 03:18:11;;;;;;;80.03;21.67;;;;;;;;;;4984324;28;21123;-72
2022/04/15 03:20:36;;;;;;;95.50;27.30;;;;;;;;;;4982656;28;20268;-71
2022/04/15 03:23:01;;;;;;;131.17;29.07;;;;;;;;;;4981600;28;20539;-71
2022/04/15 03:25:26;;;;;;;117.82;29.25;;;;;;;;;;4989472;28;20283;-71
2022/04/15 03:27:52;;;;;;;92.73;27.23;;;;;;;;;;4973623;28;20739;-72
2022/04/15 03:30:18;;;;;;;96.25;25.15;;;;;;;;;;4978147;28;20386;-71
2022/04/15 03:32:44;;;;;;;88.13;25.30;;;;;;;;;;4981169;28;20026;-70
2022/04/15 03:35:09;;;;;;;79.63;23.20;;;;;;;;;;4982795;28;20037;-71
2022/04/15 03:37:34;;;;;;;112.22;26.23;;;;;;;;;;4986080;28;20366;-71
2022/04/15 03:40:00;;;;;;;98.28;25.17;;;;;;;;;;4984521;28;20294;-70
2022/04/15 03:42:25;;;;;;;78.78;23.35;;;;;;;;;;4981765;28;20473;-71
2022/04/15 03:44:50;;;;;;;91.80;23.00;;;;;;;;;;4987486;28;20035;-71
2022/04/15 03:47:16;;;;;;;81.38;23.63;;;;;;;;;;4978781;28;20775;-71
2022/04/15 03:49:41;;;;;;;92.93;23.58;;;;;;;;;;4985904;28;20272;-70
2022/04/15 03:52:06;;;;;;;119.47;23.58;;;;;;;;;;4986358;28;20110;-71
2022/04/15 03:54:32;;;;;;;67.75;19.27;;;;;;;;;;4987954;28;20268;-71
2022/04/15 03:56:57;;;;;;;68.40;20.95;;;;;;;;;;4982440;28;20022;-71
2022/04/15 03:59:22;;;;;;;67.43;20.88;;;;;;;;;;4979078;28;20055;-71
2022/04/15 04:01:47;;;;;;;60.92;19.30;;;;;;;;;;4989896;28;20528;-71
2022/04/15 04:04:12;;;;;;;64.73;18.63;;;;;;;;;;4986643;28;20342;-71
2022/04/15 04:06:39;;;;;;;46.03;15.60;;;;;;;;;;4987626;28;20709;-71
2022/04/15 04:09:04;;;;;;;46.60;15.10;;;;;;;;;;4979913;28;20054;-70
2022/04/15 04:11:29;;;;;;;57.03;17.23;;;;;;;;;;4991542;28;20073;-71
2022/04/15 04:13:54;;;;;;;49.35;15.90;;;;;;;;;;4978680;28;20253;-70
2022/04/15 04:16:19;;;;;;;57.28;16.08;;;;;;;;;;4986340;28;20083;-71
2022/04/15 04:18:45;;;;;;;49.42;16.58;;;;;;;;;;4991248;28;20671;-71
2022/04/15 04:21:10;;;;;;;55.08;16.38;;;;;;;;;;4991339;28;20036;-71
2022/04/15 04:23:36;;;;;;;50.00;14.30;;;;;;;;;;4974573;28;20042;-72
2022/04/15 04:26:01;;;;;;;53.08;16.25;;;;;;;;;;4975860;28;20019;-70
2022/04/15 04:28:27;;;;;;;52.75;16.30;;;;;;;;;;4987163;28;20061;-70
2022/04/15 04:30:55;;;;;;;55.03;16.80;;;;;;;;;;4989786;28;20197;-71
2022/04/15 04:33:20;;;;;;;61.92;17.90;;;;;;;;;;4985095;28;20355;-70
2022/04/15 04:35:46;;;;;;;51.88;17.05;;;;;;;;;;4990707;28;20029;-70
2022/04/15 04:38:11;;;;;;;62.40;18.57;;;;;;;;;;4991227;28;20507;-71
2022/04/15 04:40:36;;;;;;;61.75;17.10;;;;;;;;;;4988346;28;20282;-70
2022/04/15 04:43:02;;;;;;;60.28;17.38;;;;;;;;;;4986545;28;20745;-71
2022/04/15 04:45:28;;;;;;;63.90;17.60;;;;;;;;;;4995820;28;20094;-72
2022/04/15 04:47:54;;;;;;;63.50;18.30;;;;;;;;;;4984866;28;20030;-71
2022/04/15 04:50:19;;;;;;;64.97;18.45;;;;;;;;;;4983489;28;20037;-72
2022/04/15 04:52:46;;;;;;;64.28;17.95;;;;;;;;;;4982180;28;20038;-71
2022/04/15 04:55:12;;;;;;;66.90;17.38;;;;;;;;;;4990860;28;20731;-71
2022/04/15 04:57:38;;;;;;;64.10;17.15;;;;;;;;;;4980801;28;20053;-70
2022/04/15 05:00:04;;;;;;;64.03;17.38;;;;;;;;;;4984939;28;20015;-71
2022/04/15 05:02:29;;;;;;;67.40;17.85;;;;;;;;;;4989098;28;20064;-71
2022/04/15 05:04:54;;;;;;;63.67;16.63;;;;;;;;;;4986854;28;20030;-71
2022/04/15 05:07:19;;;;;;;70.35;18.73;;;;;;;;;;4989959;28;20149;-71
2022/04/15 05:09:45;;;;;;;64.30;17.00;;;;;;;;;;4990674;28;20259;-72
2022/04/15 05:12:10;;;;;;;69.55;17.75;;;;;;;;;;4982715;28;20806;-72
2022/04/15 05:14:35;;;;;;;64.38;17.33;;;;;;;;;;4983501;28;20401;-71
2022/04/15 05:17:01;;;;;;;63.60;17.73;;;;;;;;;;4986526;28;20114;-72
2022/04/15 05:19:26;;;;;;;69.95;18.33;;;;;;;;;;4991151;28;20551;-72
2022/04/15 05:21:52;;;;;;;77.55;20.00;;;;;;;;;;4985690;28;20033;-71
2022/04/15 05:24:18;;;;;;;69.93;20.35;;;;;;;;;;4980435;28;20383;-71
2022/04/15 05:26:43;;;;;;;62.08;17.17;;;;;;;;;;4982828;28;20046;-71
2022/04/15 05:29:08;;;;;;;69.37;18.37;;;;;;;;;;4983013;28;20026;-71
2022/04/15 05:31:33;;;;;;;69.30;18.60;;;;;;;;;;4986652;28;20845;-71
2022/04/15 05:33:59;;;;;;;72.70;18.80;;;;;;;;;;4983071;28;20307;-71
2022/04/15 05:36:24;;;;;;;69.88;17.52;;;;;;;;;;4982171;28;20849;-71
2022/04/15 05:38:49;;;;;;;74.23;20.70;;;;;;;;;;4987021;28;20036;-74
2022/04/15 05:41:14;;;;;;;62.17;17.60;;;;;;;;;;4984085;28;20267;-71
2022/04/15 05:43:39;;;;;;;72.70;17.83;;;;;;;;;;4988827;28;20978;-70
2022/04/15 05:46:05;;;;;;;73.75;18.73;;;;;;;;;;4982195;28;20029;-71
2022/04/15 05:48:30;;;;;;;72.63;18.60;;;;;;;;;;4985193;28;20041;-69
2022/04/15 05:50:55;;;;;;;64.65;19.65;;;;;;;;;;4984427;28;20034;-72
2022/04/15 05:53:20;;;;;;;63.67;17.05;;;;;;;;;;4986673;28;20026;-70
2022/04/15 05:55:45;;;;;;;65.18;17.20;;;;;;;;;;4985360;28;20468;-70
2022/04/15 05:58:11;;;;;;;62.20;17.37;;;;;;;;;;4978430;28;20111;-71
2022/04/15 06:00:36;;;;;;;59.97;16.35;;;;;;;;;;4985086;28;20264;-70
2022/04/15 06:03:01;;;;;;;73.90;17.13;;;;;;;;;;4990984;28;20145;-71
2022/04/15 06:05:27;;;;;;;62.93;16.20;;;;;;;;;;4980841;28;20384;-70
2022/04/15 06:07:52;;;;;;;48.70;15.65;;;;;;;;;;4986506;28;20264;-70
2022/04/15 06:10:18;;;;;;;48.95;14.13;;;;;;;;;;4987548;28;20018;-72
2022/04/15 06:13:04;;;;;;;53.15;15.13;;;;;;;;;;4984024;28;20049;-70
2022/04/15 06:15:31;;;;;;;47.20;14.52;;;;;;;;;;4974840;28;20449;-69
2022/04/15 06:17:56;;;;;;;48.80;15.52;;;;;;;;;;4988251;28;20357;-70
2022/04/15 06:20:21;;;;;;;46.92;14.63;;;;;;;;;;4983698;28;20030;-70
2022/04/15 06:22:47;;;;;;;52.50;15.93;;;;;;;;;;4978429;28;20377;-70
2022/04/15 06:25:12;;;;;;;44.30;14.60;;;;;;;;;;4982456;28;20295;-70
2022/04/15 06:27:37;;;;;;;40.80;14.15;;;;;;;;;;4982019;28;20359;-70
2022/04/15 06:30:03;;;;;;;39.75;14.15;;;;;;;;;;4984020;28;20050;-70
2022/04/15 06:32:28;;;;;;;42.03;14.15;;;;;;;;;;4988945;28;20034;-70
2022/04/15 06:34:53;;;;;;;41.70;13.73;;;;;;;;;;4981052;28;20034;-70
2022/04/15 06:37:18;;;;;;;37.97;12.93;;;;;;;;;;4986996;28;20266;-69
2022/04/15 06:39:50;;;;;;;41.53;13.85;;;;;;;;;;4977399;28;20133;-70
2022/04/15 06:42:15;;;;;;;35.80;13.35;;;;;;;;;;4989588;28;20065;-70
2022/04/15 06:44:40;;;;;;;34.97;12.55;;;;;;;;;;4986391;28;20149;-69
2022/04/15 06:47:05;;;;;;;33.63;12.55;;;;;;;;;;4983612;28;20077;-69
2022/04/15 06:49:30;;;;;;;36.38;12.57;;;;;;;;;;4986675;28;20031;-69
2022/04/15 06:51:56;;;;;;;33.55;11.48;;;;;;;;;;4988209;28;20022;-68
2022/04/15 06:54:21;;;;;;;21.98;9.63;;;;;;;;;;4980097;28;20022;-70
2022/04/15 06:56:46;;;;;;;24.30;9.68;;;;;;;;;;4995498;28;20053;-69
2022/04/15 06:59:11;;;;;;;32.37;12.00;;;;;;;;;;4980695;28;20109;-70
2022/04/15 07:01:37;;;;;;;25.10;10.10;;;;;;;;;;4987001;28;20268;-69
2022/04/15 07:04:02;;;;;;;27.58;11.23;;;;;;;;;;4988127;28;20030;-70
2022/04/15 07:06:28;;;;;;;22.27;10.02;;;;;;;;;;4981020;28;20349;-70
2022/04/15 07:08:53;;;;;;;34.05;11.10;;;;;;;;;;4984305;28;20057;-70
2022/04/15 07:11:18;;;;;;;25.95;9.95;;;;;;;;;;4994125;28;20033;-70
2022/04/15 07:13:43;;;;;;;37.23;9.93;;;;;;;;;;4991350;28;20026;-69
2022/04/15 07:16:08;;;;;;;20.37;8.90;;;;;;;;;;4981633;28;20276;-69
2022/04/15 07:18:33;;;;;;;23.37;10.57;;;;;;;;;;4984538;28;20296;-69
2022/04/15 07:20:59;;;;;;;21.52;9.98;;;;;;;;;;4980406;28;20319;-70
2022/04/15 07:23:24;;;;;;;24.13;10.27;;;;;;;;;;4982128;28;20034;-70
2022/04/15 07:25:49;;;;;;;30.00;11.43;;;;;;;;;;4980187;28;20034;-70
2022/04/15 07:28:14;;;;;;;30.43;11.67;;;;;;;;;;4974436;28;20662;-71
2022/04/15 07:30:40;;;;;;;19.40;9.93;;;;;;;;;;4992240;28;20290;-71
2022/04/15 07:33:05;;;;;;;20.40;9.63;;;;;;;;;;4983142;28;20065;-72
2022/04/15 07:35:31;;;;;;;19.75;10.55;;;;;;;;;;4986470;28;20073;-72
2022/04/15 07:37:56;;;;;;;28.83;10.95;;;;;;;;;;4983111;28;20089;-71
2022/04/15 07:40:27;;;;;;;25.73;9.93;;;;;;;;;;4981085;28;20461;-70
2022/04/15 07:42:52;;;;;;;26.30;9.60;;;;;;;;;;4982896;28;20303;-70
2022/04/15 07:45:17;;;;;;;17.93;8.47;;;;;;;;;;4984020;28;20112;-71
2022/04/15 07:47:43;;;;;;;19.00;8.93;;;;;;;;;;4983892;28;20018;-70
2022/04/15 07:50:08;;;;;;;32.05;10.25;;;;;;;;;;4994856;28;20734;-71
2022/04/15 07:52:35;;;;;;;20.13;10.00;;;;;;;;;;4988564;28;20068;-70
2022/04/15 07:55:00;;;;;;;15.00;8.13;;;;;;;;;;4986215;28;20038;-70
2022/04/15 07:57:27;;;;;;;22.67;9.37;;;;;;;;;;4992557;28;20034;-71
2022/04/15 07:59:53;;;;;;;20.70;8.38;;;;;;;;;;4989563;28;20268;-70
2022/04/15 08:02:18;;;;;;;15.23;7.37;;;;;;;;;;4990977;28;20035;-74
2022/04/15 08:04:43;;;;;;;20.20;7.90;;;;;;;;;;4982177;28;20268;-74
2022/04/15 08:07:08;;;;;;;24.03;8.37;;;;;;;;;;4985248;28;20762;-74
2022/04/15 08:09:34;;;;;;;17.00;8.20;;;;;;;;;;4983746;28;20018;-73
2022/04/15 08:11:59;;;;;;;22.43;8.00;;;;;;;;;;4987771;28;20569;-73
2022/04/15 08:14:24;;;;;;;19.70;8.65;;;;;;;;;;5000931;28;20030;-73
2022/04/15 08:16:49;;;;;;;16.17;8.10;;;;;;;;;;4983560;28;20084;-73
2022/04/15 08:19:14;;;;;;;17.98;8.05;;;;;;;;;;4989720;28;20271;-73
2022/04/15 08:21:39;;;;;;;17.07;8.20;;;;;;;;;;4989434;28;20092;-73
2022/04/15 08:24:05;;;;;;;23.48;8.18;;;;;;;;;;4985947;28;20316;-73
2022/04/15 08:26:30;;;;;;;13.93;6.85;;;;;;;;;;4981348;28;20040;-76
2022/04/15 08:28:55;;;;;;;17.25;7.40;;;;;;;;;;4982274;28;20019;-73
2022/04/15 08:31:20;;;;;;;13.13;7.47;;;;;;;;;;4997260;28;20471;-73
2022/04/15 08:33:46;;;;;;;14.02;7.10;;;;;;;;;;4984798;28;20256;-73
2022/04/15 08:36:11;;;;;;;13.40;7.28;;;;;;;;;;4990793;28;20480;-73
2022/04/15 08:38:36;;;;;;;16.33;7.82;;;;;;;;;;4989208;28;20144;-73
2022/04/15 08:41:01;;;;;;;11.27;7.80;;;;;;;;;;4992724;28;20442;-73
2022/04/15 08:43:29;;;;;;;18.27;8.02;;;;;;;;;;4998042;28;20065;-73
2022/04/15 08:45:54;;;;;;;12.85;8.07;;;;;;;;;;4987855;28;20028;-72
2022/04/15 08:48:20;;;;;;;16.13;8.23;;;;;;;;;;4995130;28;20030;-72
2022/04/15 08:50:45;;;;;;;13.30;6.93;;;;;;;;;;4980660;28;20022;-71
2022/04/15 08:53:10;;;;;;;11.30;7.00;;;;;;;;;;4990085;28;20121;-72
2022/04/15 08:55:35;;;;;;;13.68;6.50;;;;;;;;;;4988671;28;20276;-72
2022/04/15 08:58:01;;;;;;;10.27;6.40;;;;;;;;;;4978853;28;20026;-71
2022/04/15 09:00:27;;;;;;;16.20;7.30;;;;;;;;;;4981648;28;20030;-71
2022/04/15 09:02:53;;;;;;;13.90;7.95;;;;;;;;;;4985376;28;20027;-71
2022/04/15 09:05:20;;;;;;;13.02;7.78;;;;;;;;;;4986846;28;20033;-71
2022/04/15 09:07:45;;;;;;;15.13;8.00;;;;;;;;;;4985278;28;20574;-74
2022/04/15 09:10:11;;;;;;;13.77;8.02;;;;;;;;;;4986565;28;20105;-73
2022/04/15 09:12:37;;;;;;;10.90;6.20;;;;;;;;;;4995545;28;20052;-73
2022/04/15 09:15:06;;;;;;;10.05;6.50;;;;;;;;;;4992122;28;20084;-74
2022/04/15 09:17:31;;;;;;;11.95;7.13;;;;;;;;;;4995311;28;20029;-73
2022/04/15 09:19:59;;;;;;;13.70;7.00;;;;;;;;;;4993353;28;20385;-73
2022/04/15 09:22:24;;;;;;;11.57;6.78;;;;;;;;;;4988412;28;20053;-74
2022/04/15 09:24:51;;;;;;;13.20;7.28;;;;;;;;;;4983481;28;20046;-74
2022/04/15 09:27:16;;;;;;;11.63;6.82;;;;;;;;;;4987924;28;20125;-74
2022/04/15 09:29:41;;;;;;;10.43;6.97;;;;;;;;;;4995558;28;20113;-74
2022/04/15 09:32:16;;;;;;;9.77;7.30;;;;;;;;;;4992637;28;20073;-75
2022/04/15 09:34:54;;;;;;;11.43;7.15;;;;;;;;;;4996333;28;20268;-73
2022/04/15 09:37:19;;;;;;;11.82;6.40;;;;;;;;;;4990235;28;20089;-75
2022/04/15 09:40:05;;;;;;;11.98;6.80;;;;;;;;;;4986226;28;20036;-75
2022/04/15 09:42:30;;;;;;;10.05;7.00;;;;;;;;;;4978730;28;20036;-75
2022/04/15 09:44:59;;;;;;;14.17;6.13;;;;;;;;;;4986468;28;20026;-73
2022/04/15 09:47:24;;;;;;;12.07;6.47;;;;;;;;;;4984139;28;20626;-74
2022/04/15 09:49:49;;;;;;;13.82;6.25;;;;;;;;;;4986126;28;20010;-74
2022/04/15 09:52:24;;;;;;;11.47;6.40;;;;;;;;;;4981812;28;20022;-74
2022/04/15 09:54:49;;;;;;;11.70;6.25;;;;;;;;;;4989546;28;20550;-74
2022/04/15 09:57:15;;;;;;;10.88;5.68;;;;;;;;;;4986712;28;20528;-75
2022/04/15 09:59:44;;;;;;;8.98;5.68;;;;;;;;;;4972859;28;20047;-71
2022/04/15 10:02:11;;;;;;;9.98;5.75;;;;;;;;;;4982659;28;20026;-75
2022/04/15 10:04:37;;;;;;;12.60;6.97;;;;;;;;;;4981844;28;20023;-76
2022/04/15 10:07:06;;;;;;;11.50;5.47;;;;;;;;;;4982283;28;20358;-75
2022/04/15 10:09:35;;;;;;;9.23;6.13;;;;;;;;;;4982806;28;20318;-75
2022/04/15 10:12:02;;;;;;;9.52;6.13;;;;;;;;;;4978931;28;20054;-77
2022/04/15 10:14:27;;;;;;;12.68;5.97;;;;;;;;;;4979584;28;20033;-75
2022/04/15 10:16:53;;;;;;;10.95;6.15;;;;;;;;;;4979692;28;20026;-75
2022/04/15 10:19:20;;;;;;;10.75;5.70;;;;;;;;;;4983660;28;20464;-74
2022/04/15 10:21:46;;;;;;;8.82;5.80;;;;;;;;;;4979684;28;20023;-78
2022/04/15 10:24:12;;;;;;;10.38;5.90;;;;;;;;;;4978247;28;20416;-77
2022/04/15 10:26:41;;;;;;;8.38;6.03;;;;;;;;;;4982110;28;20022;-77
2022/04/15 10:29:06;;;;;;;9.52;6.13;;;;;;;;;;4980848;28;20026;-77
2022/04/15 10:31:38;;;;;;;13.32;5.95;;;;;;;;;;4986816;28;20026;-77
2022/04/15 10:34:11;;;;;;;6.50;5.32;;;;;;;;;;4984566;28;20081;-77
2022/04/15 10:36:36;;;;;;;9.68;5.35;;;;;;;;;;4982722;28;20030;-77
2022/04/15 10:39:01;;;;;;;7.70;6.10;;;;;;;;;;4980740;28;20033;-76
2022/04/15 10:41:26;;;;;;;13.55;5.80;;;;;;;;;;4983069;28;20038;-77
2022/04/15 10:43:58;;;;;;;11.70;5.83;;;;;;;;;;4982680;28;20061;-77
2022/04/15 10:46:32;;;;;;;9.90;6.18;;;;;;;;;;4978764;28;20621;-76
2022/04/15 10:48:57;;;;;;;;;;;;;;;;;;4979811;28;20158;-78
2022/04/15 10:51:27;;;;;;;11.75;5.40;;;;;;;;;;4983918;28;20458;-77
2022/04/15 10:53:52;;;;;;;9.10;5.85;;;;;;;;;;4981375;28;20026;-76
2022/04/15 10:56:19;;;;;;;12.02;6.57;;;;;;;;;;4986122;28;20026;-70
2022/04/15 11:01:31;;;;;;;12.48;6.70;;;;;;;;;;4981267;28;20072;-76
2022/04/15 11:04:02;;;;;;;12.38;6.13;;;;;;;;;;4983472;28;20042;-71
2022/04/15 11:06:28;;;;;;;9.25;6.13;;;;;;;;;;4985732;28;20488;-78
2022/04/15 11:08:54;;;;;;;12.15;6.45;;;;;;;;;;4978556;28;20026;-71
2022/04/15 11:11:32;;;;;;;12.45;6.30;;;;;;;;;;4983004;28;20081;-71
2022/04/15 11:13:58;;;;;;;13.90;7.82;;;;;;;;;;4982189;28;20057;-71
2022/04/15 11:16:37;;;;;;;12.40;7.05;;;;;;;;;;4996977;28;20030;-72
2022/04/15 11:19:05;;;;;;;12.10;6.68;;;;;;;;;;4988328;28;20064;-72
2022/04/15 11:21:32;;;;;;;16.15;8.13;;;;;;;;;;4980425;28;20630;-71
2022/04/15 11:24:08;;;;;;;13.43;7.65;;;;;;;;;;4979422;28;20392;-72
2022/04/15 11:26:34;;;;;;;14.38;8.15;;;;;;;;;;4977944;28;20093;-72
2022/04/15 11:29:00;;;;;;;11.07;8.05;;;;;;;;;;4979378;28;20026;-71
2022/04/15 11:31:25;;;;;;;11.15;6.88;;;;;;;;;;4981464;28;20019;-71
2022/04/15 11:33:50;;;;;;;13.13;7.47;;;;;;;;;;4985963;28;20327;-71
2022/04/15 11:36:18;;;;;;;15.93;7.57;;;;;;;;;;4979103;28;20041;-71
2022/04/15 11:38:43;;;;;;;15.35;8.40;;;;;;;;;;4985129;28;20053;-70
2022/04/15 11:41:09;;;;;;;17.60;7.18;;;;;;;;;;4977899;28;20030;-74
2022/04/15 11:43:34;;;;;;;13.55;7.93;;;;;;;;;;4989030;28;20026;-72
2022/04/15 11:45:59;;;;;;;18.17;8.27;;;;;;;;;;4996257;28;20397;-72
2022/04/15 11:48:25;;;;;;;19.30;9.57;;;;;;;;;;4989466;28;20030;-72
2022/04/15 11:50:52;;;;;;;12.30;8.68;;;;;;;;;;4986432;28;20022;-72
2022/04/15 11:53:18;;;;;;;17.23;8.45;;;;;;;;;;4995765;28;20025;-71
2022/04/15 11:55:55;;;;;;;15.55;9.23;;;;;;;;;;4994772;28;20049;-72
2022/04/15 11:58:21;;;;;;;29.85;10.55;;;;;;;;;;4983312;28;20029;-71
2022/04/15 12:01:05;;;;;;;18.35;9.18;;;;;;;;;;4990549;28;20109;-72
2022/04/15 12:03:30;;;;;;;18.70;10.47;;;;;;;;;;4982606;28;20031;-72
2022/04/15 12:05:57;;;;;;;22.70;9.77;;;;;;;;;;4987144;28;20330;-72
2022/04/15 12:08:23;;;;;;;17.10;9.93;;;;;;;;;;4988785;28;20327;-71
2022/04/15 12:10:49;;;;;;;17.23;8.93;;;;;;;;;;4987673;28;20102;-72
2022/04/15 12:13:14;;;;;;;23.00;10.15;;;;;;;;;;4988514;28;20105;-71
2022/04/15 12:15:40;;;;;;;19.48;9.63;;;;;;;;;;4997946;28;20061;-73
2022/04/15 12:18:06;;;;;;;19.80;9.95;;;;;;;;;;4993362;28;20121;-73
2022/04/15 12:20:32;;;;;;;20.63;10.15;;;;;;;;;;4982142;28;20046;-74
2022/04/15 12:22:58;;;;;;;17.88;9.38;;;;;;;;;;4975551;28;20023;-72
2022/04/15 12:25:23;;;;;;;21.90;9.70;;;;;;;;;;4998311;28;20033;-72
2022/04/15 12:27:49;;;;;;;15.65;9.60;;;;;;;;;;4985323;28;20023;-72
2022/04/15 12:30:33;;;;;;;18.98;9.80;;;;;;;;;;5003462;28;20036;-71
2022/04/15 12:33:05;;;;;;;19.85;10.27;;;;;;;;;;4986586;28;20019;-71
2022/04/15 12:35:30;;;;;;;20.33;9.00;;;;;;;;;;4995000;28;20033;-72
2022/04/15 12:38:00;;;;;;;18.98;10.50;;;;;;;;;;4998610;28;20125;-71
2022/04/15 12:40:29;;;;;;;18.23;9.10;;;;;;;;;;5008463;28;20033;-72
2022/04/15 12:42:55;;;;;;;24.50;10.80;;;;;;;;;;4998186;28;20139;-71
2022/04/15 12:45:21;;;;;;;18.67;10.07;;;;;;;;;;4991098;28;20050;-71
2022/04/15 12:48:03;;;;;;;19.08;9.93;;;;;;;;;;4997628;28;20026;-72
2022/04/15 12:50:31;;;;;;;21.85;11.65;;;;;;;;;;5002452;28;20014;-71
2022/04/15 12:52:56;;;;;;;22.33;11.48;;;;;;;;;;4992302;28;20030;-75
2022/04/15 12:55:32;;;;;;;16.95;10.30;;;;;;;;;;4985964;28;20507;-72
2022/04/15 12:57:58;;;;;;;23.15;12.32;;;;;;;;;;4988199;28;20029;-73
2022/04/15 13:00:23;;;;;;;18.02;10.13;;;;;;;;;;4997945;28;20030;-74
2022/04/15 13:02:49;;;;;;;19.53;11.37;;;;;;;;;;5006929;28;20416;-72
2022/04/15 13:05:14;;;;;;;20.60;9.80;;;;;;;;;;4995839;28;20320;-72
2022/04/15 13:07:39;;;;;;;26.10;11.10;;;;;;;;;;4999002;28;20102;-72
2022/04/15 13:10:06;;;;;;;19.13;10.75;;;;;;;;;;4991755;28;20137;-72
2022/04/15 13:12:31;;;;;;;25.40;11.38;;;;;;;;;;4990409;28;20109;-71
2022/04/15 13:14:56;;;;;;;23.33;10.95;;;;;;;;;;4992956;28;20029;-72
2022/04/15 13:17:22;;;;;;;22.33;11.17;;;;;;;;;;5003190;28;20045;-71
2022/04/15 13:19:47;;;;;;;23.30;11.80;;;;;;;;;;4989802;28;20078;-72
2022/04/15 13:22:13;;;;;;;26.92;11.60;;;;;;;;;;4998328;28;20132;-72
2022/04/15 13:24:38;;;;;;;24.50;10.80;;;;;;;;;;5005714;28;20049;-73
2022/04/15 13:27:04;;;;;;;22.53;12.03;;;;;;;;;;4996152;28;20130;-72
2022/04/15 13:29:29;;;;;;;21.98;11.90;;;;;;;;;;4994118;28;20268;-72
2022/04/15 13:31:54;;;;;;;22.35;12.50;;;;;;;;;;4984708;28;20030;-73
2022/04/15 13:34:20;;;;;;;29.85;13.18;;;;;;;;;;4991150;28;20022;-71
2022/04/15 13:36:45;;;;;;;24.52;12.95;;;;;;;;;;4994108;28;20026;-73
2022/04/15 13:39:11;;;;;;;27.58;13.13;;;;;;;;;;4997537;28;20038;-72
2022/04/15 13:41:36;;;;;;;26.88;12.90;;;;;;;;;;4994374;28;20030;-72
2022/04/15 13:44:02;;;;;;;23.38;12.93;;;;;;;;;;4999436;28;20038;-71
2022/04/15 13:46:27;;;;;;;26.30;12.60;;;;;;;;;;4990141;28;20049;-71
2022/04/15 13:48:54;;;;;;;30.00;12.98;;;;;;;;;;4993328;28;20030;-74
2022/04/15 13:51:19;;;;;;;21.10;11.90;;;;;;;;;;4988957;28;20161;-72
2022/04/15 13:56:34;;;;;;;24.10;12.38;;;;;;;;;;4997266;28;20040;-75
2022/04/15 13:59:00;;;;;;;27.35;13.75;;;;;;;;;;4983747;28;20032;-72
2022/04/15 14:01:27;;;;;;;21.70;11.35;;;;;;;;;;5002737;28;20368;-72
2022/04/15 14:03:53;;;;;;;25.30;12.75;;;;;;;;;;4995297;28;20476;-73
2022/04/15 14:06:18;;;;;;;25.02;12.18;;;;;;;;;;5002269;28;20034;-73
2022/04/15 14:08:43;;;;;;;28.13;13.65;;;;;;;;;;4981700;28;20108;-72
2022/04/15 14:11:08;;;;;;;25.98;12.38;;;;;;;;;;4997508;28;20023;-72
2022/04/15 14:13:34;;;;;;;27.85;13.15;;;;;;;;;;5004725;28;20440;-71
2022/04/15 14:15:59;;;;;;;22.15;12.25;;;;;;;;;;4995416;28;20077;-72
2022/04/15 14:18:25;;;;;;;23.80;11.97;;;;;;;;;;5001472;28;20030;-72
2022/04/15 14:20:50;;;;;;;28.13;12.48;;;;;;;;;;4997063;28;20030;-73